createdAt,value
2018-08-20T00:02:04.269Z,8.17
2018-08-20T00:04:38.227Z,8.27
2018-08-20T00:07:06.983Z,7.67
2018-08-20T00:09:40.911Z,7.80
2018-08-20T00:12:10.245Z,8.57
2018-08-20T00:14:38.919Z,7.73
2018-08-20T00:17:07.573Z,7.90
2018-08-20T00:19:36.311Z,7.83
2018-08-20T00:22:04.895Z,8.30
2018-08-20T00:24:33.437Z,8.27
2018-08-20T00:27:03.147Z,8.40
2018-08-20T00:29:32.544Z,8.43
2018-08-20T00:32:01.115Z,7.80
2018-08-20T00:34:29.645Z,7.70
2018-08-20T00:36:58.240Z,7.97
2018-08-20T00:39:27.113Z,8.43
2018-08-20T00:41:55.625Z,8.37
2018-08-20T00:44:24.181Z,8.50
2018-08-20T00:46:52.947Z,8.40
2018-08-20T00:49:21.628Z,8.33
2018-08-20T00:51:50.266Z,7.77
2018-08-20T00:54:19.054Z,8.50
2018-08-20T00:56:47.977Z,7.63
2018-08-20T00:59:16.526Z,7.60
2018-08-20T01:01:45.070Z,8.23
2018-08-20T01:04:13.787Z,8.57
2018-08-20T01:06:42.507Z,8.17
2018-08-20T01:09:11.065Z,8.40
2018-08-20T01:11:39.740Z,8.20
2018-08-20T01:14:08.395Z,8.93
2018-08-20T01:16:37.040Z,8.77
2018-08-20T01:19:05.698Z,9.10
2018-08-20T01:21:34.626Z,8.50
2018-08-20T01:24:03.167Z,8.33
2018-08-20T01:26:31.703Z,8.20
2018-08-20T01:29:00.265Z,8.60
2018-08-20T01:31:28.837Z,8.07
2018-08-20T01:33:57.550Z,8.40
2018-08-20T01:36:26.186Z,8.60
2018-08-20T01:38:54.934Z,8.50
2018-08-20T01:41:23.629Z,8.57
2018-08-20T01:43:52.247Z,7.90
2018-08-20T01:46:20.875Z,7.63
2018-08-20T01:48:49.513Z,8.30
2018-08-20T01:51:18.093Z,8.13
2018-08-20T01:53:46.633Z,8.20
2018-08-20T01:56:15.420Z,8.77
2018-08-20T01:58:44.081Z,8.33
2018-08-20T02:01:12.647Z,8.00
2018-08-20T02:03:41.341Z,8.63
2018-08-20T02:06:10.131Z,8.57
2018-08-20T02:08:38.698Z,8.30
2018-08-20T02:11:07.420Z,8.80
2018-08-20T02:13:36.210Z,7.83
2018-08-20T02:16:04.776Z,8.50
2018-08-20T02:18:33.309Z,8.63
2018-08-20T02:21:02.130Z,9.10
2018-08-20T02:23:30.652Z,7.87
2018-08-20T02:25:59.199Z,8.57
2018-08-20T02:28:28.011Z,8.10
2018-08-20T02:30:57.080Z,7.97
2018-08-20T02:33:26.112Z,8.07
2018-08-20T02:35:54.999Z,8.63
2018-08-20T02:38:23.677Z,8.37
2018-08-20T02:40:52.212Z,8.30
2018-08-20T02:43:20.927Z,8.70
2018-08-20T02:45:49.439Z,8.77
2018-08-20T02:48:17.970Z,8.50
2018-08-20T02:50:46.946Z,8.60
2018-08-20T02:53:15.530Z,8.57
2018-08-20T02:55:44.350Z,8.53
2018-08-20T02:58:13.504Z,8.50
2018-08-20T03:00:42.195Z,8.67
2018-08-20T03:03:10.716Z,9.20
2018-08-20T03:05:39.360Z,8.53
2018-08-20T03:08:08.072Z,8.70
2018-08-20T03:10:36.779Z,8.40
2018-08-20T03:13:05.647Z,8.40
2018-08-20T03:15:34.180Z,8.87
2018-08-20T03:18:02.912Z,8.10
2018-08-20T03:20:31.476Z,8.40
2018-08-20T03:22:59.984Z,9.20
2018-08-20T03:25:28.630Z,8.43
2018-08-20T03:27:57.134Z,8.80
2018-08-20T03:30:25.975Z,8.60
2018-08-20T03:32:54.924Z,8.30
2018-08-20T03:35:23.510Z,8.07
2018-08-20T03:37:52.063Z,8.70
2018-08-20T03:40:20.576Z,8.73
2018-08-20T03:42:49.145Z,8.73
2018-08-20T03:45:17.666Z,8.33
2018-08-20T03:47:46.287Z,8.70
2018-08-20T03:50:15.472Z,8.50
2018-08-20T03:52:44.112Z,8.93
2018-08-20T03:55:12.657Z,8.30
2018-08-20T03:57:41.342Z,8.43
2018-08-20T04:00:11.428Z,9.07
2018-08-20T04:02:39.933Z,9.13
2018-08-20T04:05:08.903Z,8.83
2018-08-20T04:07:37.466Z,8.60
2018-08-20T04:10:06.066Z,8.80
2018-08-20T04:12:34.657Z,8.87
2018-08-20T04:15:03.245Z,7.90
2018-08-20T04:17:31.921Z,8.90
2018-08-20T04:20:00.863Z,8.97
2018-08-20T04:22:29.412Z,8.80
2018-08-20T04:24:57.950Z,9.07
2018-08-20T04:27:26.483Z,9.37
2018-08-20T04:29:54.987Z,9.40
2018-08-20T04:32:23.529Z,9.37
2018-08-20T04:34:52.057Z,8.43
2018-08-20T04:37:20.739Z,9.10
2018-08-20T04:39:49.276Z,8.97
2018-08-20T04:42:17.968Z,8.67
2018-08-20T04:44:46.432Z,8.53
2018-08-20T04:47:14.984Z,8.90
2018-08-20T04:49:43.538Z,9.40
2018-08-20T04:52:12.452Z,8.70
2018-08-20T04:54:41.198Z,9.23
2018-08-20T04:57:09.802Z,9.10
2018-08-20T04:59:38.496Z,9.77
2018-08-20T05:02:07.370Z,9.03
2018-08-20T05:04:35.935Z,9.40
2018-08-20T05:07:04.502Z,10.07
2018-08-20T05:09:33.276Z,9.60
2018-08-20T05:12:01.865Z,9.60
2018-08-20T05:14:30.406Z,11.97
2018-08-20T05:16:59.264Z,10.13
2018-08-20T05:19:27.971Z,9.93
2018-08-20T05:21:56.481Z,9.57
2018-08-20T05:24:25.047Z,10.90
2018-08-20T05:26:53.670Z,10.90
2018-08-20T05:29:22.331Z,10.33
2018-08-20T05:31:50.817Z,9.90
2018-08-20T05:34:19.547Z,10.80
2018-08-20T05:36:48.340Z,10.63
2018-08-20T05:39:16.999Z,10.93
2018-08-20T05:41:45.742Z,11.87
2018-08-20T05:44:14.277Z,12.57
2018-08-20T05:46:42.824Z,11.47
2018-08-20T05:49:11.367Z,11.73
2018-08-20T05:51:39.952Z,13.60
2018-08-20T05:54:08.499Z,12.80
2018-08-20T05:56:37.190Z,12.53
2018-08-20T05:59:06.017Z,12.33
2018-08-20T06:01:34.628Z,13.83
2018-08-20T06:04:03.235Z,14.13
2018-08-20T06:06:31.929Z,14.53
2018-08-20T06:09:00.880Z,14.33
2018-08-20T06:11:29.602Z,15.67
2018-08-20T06:13:58.407Z,14.97
2018-08-20T06:16:27.264Z,16.13
2018-08-20T06:18:55.890Z,16.27
2018-08-20T06:21:24.696Z,16.33
2018-08-20T06:23:53.285Z,16.80
2018-08-20T06:26:22.121Z,18.20
2018-08-20T06:28:50.901Z,18.03
2018-08-20T06:31:19.452Z,18.40
2018-08-20T06:33:48.005Z,17.93
2018-08-20T06:36:16.885Z,19.90
2018-08-20T06:38:45.598Z,18.60
2018-08-20T06:41:14.411Z,20.70
2018-08-20T06:43:42.966Z,19.60
2018-08-20T06:46:11.541Z,20.47
2018-08-20T06:48:40.078Z,20.40
2018-08-20T06:51:08.652Z,21.20
2018-08-20T06:53:37.287Z,20.27
2018-08-20T06:56:06.168Z,19.97
2018-08-20T06:58:34.984Z,19.47
2018-08-20T07:01:03.543Z,20.13
2018-08-20T07:03:32.411Z,19.93
2018-08-20T07:06:01.525Z,18.60
2018-08-20T07:08:30.688Z,20.47
2018-08-20T07:10:59.380Z,18.83
2018-08-20T07:13:33.392Z,17.60
2018-08-20T07:16:01.985Z,16.53
2018-08-20T07:18:30.967Z,17.17
2018-08-20T07:20:59.785Z,17.50
2018-08-20T07:23:29.246Z,16.13
2018-08-20T07:25:57.896Z,16.13
2018-08-20T07:28:26.924Z,15.50
2018-08-20T07:30:55.518Z,15.67
2018-08-20T07:33:24.140Z,14.33
2018-08-20T07:35:52.852Z,13.57
2018-08-20T07:38:21.417Z,14.07
2018-08-20T07:40:50.308Z,13.47
2018-08-20T07:43:19.593Z,12.80
2018-08-20T07:45:48.162Z,13.93
2018-08-20T07:48:16.843Z,12.40
2018-08-20T07:50:45.827Z,12.73
2018-08-20T07:53:14.360Z,12.17
2018-08-20T07:55:43.163Z,13.30
2018-08-20T07:58:11.730Z,11.40
2018-08-20T08:00:40.959Z,12.00
2018-08-20T08:03:09.807Z,12.23
2018-08-20T08:05:38.373Z,11.83
2018-08-20T08:08:07.146Z,11.10
2018-08-20T08:10:35.731Z,11.60
2018-08-20T08:13:04.363Z,10.43
2018-08-20T08:15:33.315Z,10.80
2018-08-20T08:18:02.109Z,10.97
2018-08-20T08:20:30.785Z,10.97
2018-08-20T08:22:59.341Z,10.90
2018-08-20T08:25:27.901Z,10.90
2018-08-20T08:27:56.442Z,12.77
2018-08-20T08:30:25.032Z,13.00
2018-08-20T08:32:53.581Z,12.30
2018-08-20T08:35:22.379Z,12.50
2018-08-20T08:37:51.037Z,12.97
2018-08-20T08:40:19.657Z,13.43
2018-08-20T08:42:48.239Z,13.07
2018-08-20T08:45:18.513Z,12.97
2018-08-20T08:47:47.766Z,14.10
2018-08-20T08:50:17.417Z,13.97
2018-08-20T08:52:46.750Z,14.23
2018-08-20T08:55:15.609Z,14.47
2018-08-20T08:57:44.265Z,13.50
2018-08-20T09:00:21.482Z,12.17
2018-08-20T09:02:50.360Z,11.90
2018-08-20T09:05:18.909Z,12.30
2018-08-20T09:07:47.747Z,12.70
2018-08-20T09:10:17.110Z,10.63
2018-08-20T09:12:45.723Z,10.67
2018-08-20T09:15:15.904Z,9.47
2018-08-20T09:17:45.654Z,9.20
2018-08-20T09:20:15.716Z,9.40
2018-08-20T09:22:44.576Z,10.00
2018-08-20T09:25:14.202Z,9.17
2018-08-20T09:27:43.882Z,9.63
2018-08-20T09:30:15.293Z,8.87
2018-08-20T09:32:44.539Z,9.00
2018-08-20T09:35:13.433Z,7.73
2018-08-20T09:37:42.097Z,7.40
2018-08-20T09:40:12.124Z,7.83
2018-08-20T09:42:41.521Z,7.27
2018-08-20T09:45:10.484Z,5.83
2018-08-20T09:47:40.359Z,6.77
2018-08-20T09:50:11.216Z,6.40
2018-08-20T09:52:39.775Z,6.80
2018-08-20T09:55:09.250Z,6.20
2018-08-20T09:57:38.170Z,6.43
2018-08-20T10:00:10.769Z,6.43
2018-08-20T10:02:39.958Z,6.73
2018-08-20T10:05:08.494Z,6.77
2018-08-20T10:07:37.629Z,6.10
2018-08-20T10:10:06.905Z,6.10
2018-08-20T10:12:35.472Z,6.20
2018-08-20T10:15:04.362Z,4.50
2018-08-20T10:17:33.010Z,4.77
2018-08-20T10:20:01.764Z,4.40
2018-08-20T10:22:30.387Z,4.50
2018-08-20T10:24:59.238Z,4.47
2018-08-20T10:27:27.840Z,4.33
2018-08-20T10:29:57.104Z,4.83
2018-08-20T10:32:25.623Z,5.53
2018-08-20T10:34:54.352Z,5.00
2018-08-20T10:37:23.354Z,5.63
2018-08-20T10:39:52.254Z,5.60
2018-08-20T10:42:21.292Z,5.40
2018-08-20T10:44:52.826Z,5.10
2018-08-20T10:47:22.511Z,6.00
2018-08-20T10:49:51.215Z,5.87
2018-08-20T10:52:19.884Z,5.70
2018-08-20T10:54:48.493Z,6.37
2018-08-20T10:57:18.183Z,6.20
2018-08-20T10:59:46.720Z,5.57
2018-08-20T11:02:15.485Z,6.47
2018-08-20T11:04:44.121Z,5.77
2018-08-20T11:07:12.692Z,6.10
2018-08-20T11:09:41.385Z,6.60
2018-08-20T11:12:10.184Z,5.87
2018-08-20T11:14:39.270Z,6.90
2018-08-20T11:17:08.338Z,5.93
2018-08-20T11:19:37.262Z,7.00
2018-08-20T11:22:06.028Z,5.87
2018-08-20T11:24:34.793Z,6.50
2018-08-20T11:27:03.537Z,6.27
2018-08-20T11:29:32.148Z,6.30
2018-08-20T11:32:00.894Z,6.63
2018-08-20T11:34:29.674Z,6.23
2018-08-20T11:36:58.442Z,4.97
2018-08-20T11:39:27.058Z,5.00
2018-08-20T11:41:55.701Z,4.97
2018-08-20T11:44:24.635Z,5.50
2018-08-20T11:46:53.420Z,4.60
2018-08-20T11:49:22.105Z,4.67
2018-08-20T11:51:50.687Z,4.87
2018-08-20T11:54:19.458Z,5.07
2018-08-20T11:56:48.360Z,4.53
2018-08-20T11:59:17.074Z,5.03
2018-08-20T12:01:45.677Z,4.80
2018-08-20T12:04:14.462Z,5.07
2018-08-20T12:06:43.117Z,5.03
2018-08-20T12:09:11.956Z,5.00
2018-08-20T12:11:40.665Z,5.70
2018-08-20T12:14:09.496Z,5.37
2018-08-20T12:16:38.408Z,5.60
2018-08-20T12:19:07.353Z,4.90
2018-08-20T12:21:36.208Z,5.37
2018-08-20T12:24:05.379Z,4.95
2018-08-20T12:26:34.194Z,5.33
2018-08-20T12:29:02.840Z,4.67
2018-08-20T12:31:31.381Z,5.28
2018-08-20T12:34:00.000Z,4.70
2018-08-20T12:36:28.893Z,5.87
2018-08-20T12:38:57.755Z,5.33
2018-08-20T12:41:26.944Z,5.22
2018-08-20T12:43:55.833Z,4.90
2018-08-20T12:46:24.797Z,5.10
2018-08-20T12:48:54.015Z,4.92
2018-08-20T12:51:23.602Z,5.95
2018-08-20T12:53:52.364Z,5.60
2018-08-20T12:56:21.136Z,5.50
2018-08-20T12:58:52.312Z,5.65
2018-08-20T13:01:21.591Z,5.65
2018-08-20T13:03:50.854Z,5.03
2018-08-20T13:06:19.878Z,5.05
2018-08-20T13:08:48.577Z,5.08
2018-08-20T13:11:18.693Z,5.05
2018-08-20T13:13:47.701Z,4.85
2018-08-20T13:16:16.734Z,4.87
2018-08-20T13:18:45.459Z,5.10
2018-08-20T13:21:14.486Z,5.37
2018-08-20T13:23:43.246Z,5.03
2018-08-20T13:26:12.170Z,4.90
2018-08-20T13:28:40.972Z,4.47
2018-08-20T13:31:10.020Z,4.72
2018-08-20T13:33:38.783Z,5.00
2018-08-20T13:36:07.840Z,5.60
2018-08-20T13:38:36.724Z,4.95
2018-08-20T13:41:05.816Z,4.83
2018-08-20T13:43:34.865Z,5.28
2018-08-20T13:46:03.560Z,5.15
2018-08-20T13:48:32.601Z,5.28
2018-08-20T13:51:01.368Z,4.72
2018-08-20T13:53:30.519Z,4.85
2018-08-20T13:55:59.156Z,5.08
2018-08-20T13:58:27.756Z,4.80
2018-08-20T14:00:56.744Z,4.92
2018-08-20T14:03:25.382Z,4.28
2018-08-20T14:05:54.226Z,4.53
2018-08-20T14:08:23.182Z,3.90
2018-08-20T14:10:51.896Z,4.25
2018-08-20T14:13:20.778Z,4.28
2018-08-20T14:15:49.739Z,4.37
2018-08-20T14:18:18.989Z,4.87
2018-08-20T14:21:25.268Z,3.87
2018-08-20T14:23:53.873Z,4.30
2018-08-20T14:26:22.921Z,4.00
2018-08-20T14:28:52.010Z,3.77
2018-08-20T14:31:20.668Z,4.20
2018-08-20T14:33:49.219Z,4.22
2018-08-20T14:36:18.310Z,4.00
2018-08-20T14:38:46.976Z,4.50
2018-08-20T14:41:15.651Z,4.25
2018-08-20T14:43:44.591Z,4.25
2018-08-20T14:46:18.743Z,4.60
2018-08-20T14:48:47.664Z,4.25
2018-08-20T14:51:16.404Z,4.58
2018-08-20T14:53:45.277Z,4.90
2018-08-20T14:56:14.253Z,4.60
2018-08-20T14:58:43.059Z,5.35
2018-08-20T15:01:11.886Z,5.85
2018-08-20T15:03:41.107Z,6.20
2018-08-20T15:06:10.000Z,6.45
2018-08-20T15:08:40.091Z,6.58
2018-08-20T15:11:09.492Z,8.73
2018-08-20T15:13:38.089Z,8.45
2018-08-20T15:16:07.018Z,10.60
2018-08-20T15:18:35.664Z,12.37
2018-08-20T15:21:04.627Z,12.90
2018-08-20T15:23:34.214Z,12.88
2018-08-20T15:26:03.157Z,12.47
2018-08-20T15:28:32.636Z,12.88
2018-08-20T15:31:01.252Z,11.83
2018-08-20T15:33:30.114Z,12.07
2018-08-20T15:35:59.339Z,12.40
2018-08-20T15:38:28.263Z,11.80
2018-08-20T15:40:57.194Z,11.73
2018-08-20T15:43:25.766Z,12.33
2018-08-20T15:45:54.607Z,12.07
2018-08-20T15:48:23.247Z,13.48
2018-08-20T15:50:51.920Z,12.70
2018-08-20T15:53:20.646Z,12.70
2018-08-20T15:55:49.246Z,12.93
2018-08-20T15:58:18.214Z,13.00
2018-08-20T16:00:47.361Z,13.43
2018-08-20T16:03:16.536Z,13.80
2018-08-20T16:05:45.491Z,13.23
2018-08-20T16:08:14.196Z,13.20
2018-08-20T16:10:42.978Z,12.50
2018-08-20T16:13:11.740Z,11.43
2018-08-20T16:15:40.860Z,11.47
2018-08-20T16:18:09.655Z,10.80
2018-08-20T16:20:38.483Z,10.60
2018-08-20T16:23:07.960Z,10.10
2018-08-20T16:25:37.466Z,9.87
2018-08-20T16:28:06.926Z,10.40
2018-08-20T16:30:35.999Z,10.03
2018-08-20T16:33:05.142Z,10.27
2018-08-20T16:35:38.704Z,9.37
2018-08-20T16:38:07.361Z,9.00
2018-08-20T16:40:36.346Z,9.67
2018-08-20T16:43:05.528Z,9.20
2018-08-20T16:45:34.521Z,9.27
2018-08-20T16:48:03.448Z,8.87
2018-08-20T16:50:32.354Z,8.70
2018-08-20T16:53:00.956Z,9.23
2018-08-20T16:55:30.135Z,8.53
2018-08-20T16:57:58.695Z,9.10
2018-08-20T17:00:27.414Z,8.77
2018-08-20T17:02:56.264Z,9.43
2018-08-20T17:05:27.930Z,9.03
2018-08-20T17:07:57.256Z,9.13
2018-08-20T17:10:26.091Z,9.43
2018-08-20T17:12:55.083Z,9.00
2018-08-20T17:15:23.905Z,9.63
2018-08-20T17:17:52.660Z,10.07
2018-08-20T17:20:21.362Z,10.07
2018-08-20T17:22:50.216Z,9.93
2018-08-20T17:25:19.185Z,9.40
2018-08-20T17:27:53.104Z,9.73
2018-08-20T17:30:23.123Z,9.63
2018-08-20T17:32:52.299Z,9.10
2018-08-20T17:35:21.115Z,10.17
2018-08-20T17:37:51.076Z,9.20
2018-08-20T17:40:19.824Z,10.50
2018-08-20T17:42:48.606Z,9.53
2018-08-20T17:45:17.638Z,9.70
2018-08-20T17:47:46.434Z,9.17
2018-08-20T17:50:29.128Z,8.90
2018-08-20T17:52:59.716Z,9.73
2018-08-20T17:55:28.842Z,9.43
2018-08-20T17:57:57.588Z,9.63
2018-08-20T18:00:38.872Z,9.10
2018-08-20T18:03:14.499Z,10.10
2018-08-20T18:05:43.816Z,8.97
2018-08-20T18:08:12.623Z,9.33
2018-08-20T18:10:42.047Z,8.27
2018-08-20T18:13:10.969Z,9.50
2018-08-20T18:15:39.763Z,9.00
2018-08-20T18:18:08.858Z,9.30
2018-08-20T18:20:42.197Z,8.73
2018-08-20T18:23:11.254Z,8.53
2018-08-20T18:25:41.959Z,9.37
2018-08-20T18:28:10.831Z,8.40
2018-08-20T18:30:39.701Z,8.77
2018-08-20T18:33:08.531Z,8.50
2018-08-20T18:35:37.690Z,8.97
2018-08-20T18:38:06.688Z,8.57
2018-08-20T18:40:35.418Z,9.50
2018-08-20T18:43:04.242Z,8.83
2018-08-20T18:45:33.288Z,8.30
2018-08-20T18:48:01.986Z,8.63
2018-08-20T18:50:30.895Z,8.57
2018-08-20T18:52:59.564Z,8.27
2018-08-20T18:55:28.845Z,8.07
2018-08-20T18:57:57.507Z,8.37
2018-08-20T19:00:26.729Z,9.57
2018-08-20T19:02:56.886Z,9.07
2018-08-20T19:05:25.648Z,9.43
2018-08-20T19:07:54.396Z,9.70
2018-08-20T19:10:26.225Z,9.80
2018-08-20T19:12:55.082Z,8.97
2018-08-20T19:15:37.677Z,9.03
2018-08-20T19:18:08.380Z,10.20
2018-08-20T19:20:37.337Z,9.03
2018-08-20T19:23:06.080Z,7.73
2018-08-20T19:25:34.800Z,8.73
2018-08-20T19:28:09.224Z,8.23
2018-08-20T19:30:38.395Z,8.67
2018-08-20T19:33:16.431Z,9.00
2018-08-20T19:35:46.017Z,9.00
2018-08-20T19:38:14.656Z,8.83
2018-08-20T19:40:43.229Z,8.50
2018-08-20T19:43:12.052Z,9.03
2018-08-20T19:45:43.504Z,9.10
2018-08-20T19:48:13.190Z,8.43
2018-08-20T19:50:42.178Z,8.50
2018-08-20T19:53:17.997Z,9.47
2018-08-20T19:55:47.223Z,9.33
2018-08-20T19:58:29.669Z,9.33
2018-08-20T20:01:10.181Z,9.83
2018-08-20T20:03:41.828Z,10.03
2018-08-20T20:06:10.827Z,10.33
2018-08-20T20:08:39.938Z,10.53
2018-08-20T20:11:17.321Z,10.87
2018-08-20T20:13:48.688Z,11.83
2018-08-20T20:16:17.632Z,12.03
2018-08-20T20:18:46.356Z,13.23
2018-08-20T20:21:15.531Z,13.03
2018-08-20T20:23:44.455Z,14.03
2018-08-20T20:26:13.678Z,14.27
2018-08-20T20:28:42.577Z,13.97
2018-08-20T20:31:11.448Z,14.30
2018-08-20T20:33:40.347Z,14.10
2018-08-20T20:36:12.428Z,13.23
2018-08-20T20:38:41.106Z,13.20
2018-08-20T20:41:10.044Z,13.60
2018-08-20T20:43:39.153Z,14.63
2018-08-20T20:46:09.615Z,13.70
2018-08-20T20:48:38.991Z,13.80
2018-08-20T20:51:07.912Z,13.60
2018-08-20T20:53:36.635Z,13.83
2018-08-20T20:56:05.234Z,13.37
2018-08-20T20:58:34.673Z,13.33
2018-08-20T21:01:04.946Z,13.20
2018-08-20T21:03:34.500Z,14.40
2018-08-20T21:06:03.959Z,14.50
2018-08-20T21:08:38.699Z,14.23
2018-08-20T21:11:07.576Z,14.60
2018-08-20T21:13:36.684Z,14.50
2018-08-20T21:16:09.543Z,12.40
2018-08-20T21:18:42.844Z,12.83
2018-08-20T21:21:11.444Z,12.93
2018-08-20T21:23:41.164Z,13.80
2018-08-20T21:26:10.420Z,14.97
2018-08-20T21:28:44.254Z,16.20
2018-08-20T21:31:13.750Z,16.07
2018-08-20T21:33:42.976Z,15.30
2018-08-20T21:36:12.516Z,12.93
2018-08-20T21:38:41.245Z,14.03
2018-08-20T21:41:10.024Z,14.93
2018-08-20T21:43:48.103Z,15.47
2018-08-20T21:46:17.442Z,12.83
2018-08-20T21:48:46.226Z,13.43
2018-08-20T21:51:22.396Z,12.63
2018-08-20T21:53:51.433Z,13.07
2018-08-20T21:56:20.048Z,12.83
2018-08-20T21:58:48.922Z,12.20
2018-08-20T22:01:18.055Z,11.97
2018-08-20T22:03:47.214Z,11.53
2018-08-20T22:06:16.100Z,11.37
2018-08-20T22:08:45.318Z,12.37
2018-08-20T22:11:14.497Z,12.40
2018-08-20T22:13:43.236Z,12.60
2018-08-20T22:16:17.606Z,12.40
2018-08-20T22:18:47.823Z,13.07
2018-08-20T22:21:17.844Z,13.93
2018-08-20T22:23:47.424Z,12.40
2018-08-20T22:26:17.817Z,12.90
2018-08-20T22:28:48.913Z,13.20
2018-08-20T22:31:18.028Z,13.70
2018-08-20T22:33:53.189Z,13.20
2018-08-20T22:36:22.021Z,11.53
2018-08-20T22:38:52.476Z,10.63
2018-08-20T22:41:22.198Z,11.30
2018-08-20T22:43:51.325Z,13.10
2018-08-20T22:46:21.067Z,13.33
2018-08-20T22:48:52.010Z,11.13
2018-08-20T22:51:21.414Z,12.40
2018-08-20T22:53:58.108Z,11.47
2018-08-20T22:56:30.048Z,13.00
2018-08-20T22:59:03.319Z,12.13
2018-08-20T23:01:32.162Z,11.87
2018-08-20T23:04:00.903Z,11.10
2018-08-20T23:06:30.068Z,12.03
2018-08-20T23:08:59.029Z,11.07
2018-08-20T23:11:40.697Z,11.43
2018-08-20T23:14:11.138Z,11.43
2018-08-20T23:16:40.257Z,11.00
2018-08-20T23:19:09.961Z,11.43
2018-08-20T23:21:47.705Z,10.90
2018-08-20T23:24:17.490Z,10.43
2018-08-20T23:26:46.146Z,10.97
2018-08-20T23:29:14.814Z,11.50
2018-08-20T23:31:43.483Z,11.77
2018-08-20T23:34:15.271Z,11.93
2018-08-20T23:36:44.085Z,11.90
2018-08-20T23:39:14.820Z,11.17
2018-08-20T23:41:43.351Z,12.20
2018-08-20T23:44:13.681Z,12.63
2018-08-20T23:46:44.606Z,11.93
2018-08-20T23:49:13.491Z,12.33
2018-08-20T23:51:42.315Z,12.50
2018-08-20T23:54:11.753Z,12.83
2018-08-20T23:56:40.509Z,12.83
2018-08-20T23:59:09.634Z,11.80
